Phuket, Thailand

10:58 PM ICT on July 25, 2014 (GMT +0700)
Phuket International (VTSP) Elev 30 ft | 8.11 °N, 98.32 °E | Change Station

Current weather conditions updated 28 minutes ago

Mostly Cloudy
Mostly Cloudy
75 °F
Feels Like 75 °F
N
4
Wind Variable Wind from East

Tomorrow is forecast to be Cooler than today. Thunderstorms.

Today
High -- | Low -- °F
--% Chance of Precip.
Yesterday
High -- | Low -- °F
Precip. -- in
6:17 AM 6:48 PM
Waning Crescent, 2% visible
Pressure 29.86 in
Visibility 5.0 miles
Clouds Few 1800 ft
Scattered Clouds 12000 ft
Mostly Cloudy 30000 ft
Dew Point 73 °F
Humidity 94%
Rainfall 0.00 in
Snow Depth Not available.
UV 0 out of 12
Pollen Not available.
Air Quality Not available.
Flu Activity Not available.
METAR VTSP 251530Z 08003KT 8000 FEW018 SCT120 BKN300 24/23 Q1011 A2985 NOSIG

More Conditions Fewer Conditions

Pressure 29.86 in
Visibility 5.0 miles
Clouds Few 1800 ft
Scattered Clouds 12000 ft
Mostly Cloudy 30000 ft
Dew Point 73 °F
Humidity 94%
Rainfall 0.00 in
Snow Depth Not available.
UV 0 out of 12
Pollen Not available.
Air Quality Not available.
Flu Activity Not available.
METAR VTSP 251530Z 08003KT 8000 FEW018 SCT120 BKN300 24/23 Q1011 A2985 NOSIG

More Conditions Fewer Conditions

10-Day Weather Forecast

Almanac

Astronomy

Jul. 25, 2014 Rise Set
Actual Time 6:17 AM ICT 6:48 PM ICT
Civil Twilight 5:55 AM ICT 7:10 PM ICT
Nautical Twilight 5:29 AM ICT 7:36 PM ICT
Astronomical Twilight 5:03 AM ICT 8:03 PM ICT
Moon 4:45 AM ICT 5:30 PM ICT
Length of Visible Light 13h 15m
Length of Day
12h 30m
Tomorrow will be 0m 17s shorter.
Waning Crescent, 2% of the Moon is Illuminated
Today
Waning Crescent
Jul 26
New
Aug 3
First Quarter
Aug 10
Full
Aug 17
Last Quarter

Today's Extremes

Country Highs Country Lows

Community

WunderPhotos

Upload Photos

1,737,355 photos uploaded!

Nearby

Snow Depth

Not available.

Earthquake Activity

City Distance Mag. Time & Date
No recent earthquake activity has been reported nearby.
Minimum magnitude displayed is 2.5.

Coastal Water Temperatures

Place Temperature
No Stations Reporting

Nearby Weather Stations

Station Location Temp. Heat Index Dew Point Humidity Wind Precip. Elev Updated Type
Ao Chalong Yacht Club, Wichit 77.0 °F 78 °F 76 °F 97% WNW  at  0.0 mph 0.00 in / hr 20 ft 10:55 PM ICT Normal
Mig`s house, Phuket 76.1 °F 76 °F 74 °F 90% SW  at  0.0 mph 0.00 in / hr 35 ft 10:55 PM ICT Normal
Promthep Cape, Phuket, Rawai 79.2 °F 83 °F 75 °F 87% WSW  at  2.0 mph 0.00 in / hr 190 ft 10:58 PM ICT Rapid Fire

Show More Stations Show Fewer Stations